Anderson, California
Current Conditions -  °F | °C
As of 11:00 PM on Saturday 20 Dec 2014 (Local Time) from KRDD Reporting Station
Haze Haze  
Wind Chill: 53°   Ceiling: 1300
Heat Index: 53°   Visibility: 6mi
Dew Point: 52°   Wind: 12mph
Humidity: 96%   Direction: 200°SSW
Pressure: 30.21"   Gusts: NA
Location:  40.45°N, 122.3°W
Report Text: KRDD 210700Z 20010KT 6SM BR OVC013 12/11 A3021 RMK AO2 T01170111
Loading
Personal Weather Stations






























Interactive Weather Map New forecast layout! Learn more

10-Day Weather Forecast

Advertisements
Track Severe Weather on mobile